sensor_id;sensor_type;location;lat;lon;timestamp;P1;durP1;ratioP1;P2;durP2;ratioP2
26435;SDS011;15351;52.408;16.826;2023-05-10T00:04:38;13.00;;;8.20;;
26435;SDS011;15351;52.408;16.826;2023-05-10T00:07:11;12.00;;;7.70;;
26435;SDS011;15351;52.408;16.826;2023-05-10T00:09:57;11.60;;;7.70;;
26435;SDS011;15351;52.408;16.826;2023-05-10T00:12:27;12.40;;;7.60;;
26435;SDS011;15351;52.408;16.826;2023-05-10T00:15:25;11.10;;;7.50;;
26435;SDS011;15351;52.408;16.826;2023-05-10T00:17:56;12.70;;;7.60;;
26435;SDS011;15351;52.408;16.826;2023-05-10T00:21:12;12.70;;;7.10;;
26435;SDS011;15351;52.408;16.826;2023-05-10T00:23:39;10.20;;;7.30;;
26435;SDS011;15351;52.408;16.826;2023-05-10T00:26:09;12.00;;;7.20;;
26435;SDS011;15351;52.408;16.826;2023-05-10T00:28:45;11.40;;;7.30;;
26435;SDS011;15351;52.408;16.826;2023-05-10T00:31:29;10.80;;;7.30;;
26435;SDS011;15351;52.408;16.826;2023-05-10T00:34:23;12.30;;;7.20;;
26435;SDS011;15351;52.408;16.826;2023-05-10T00:36:53;13.50;;;7.40;;
26435;SDS011;15351;52.408;16.826;2023-05-10T00:40:11;11.30;;;7.80;;
26435;SDS011;15351;52.408;16.826;2023-05-10T00:43:03;9.10;;;7.00;;
26435;SDS011;15351;52.408;16.826;2023-05-10T00:45:32;11.60;;;7.20;;
26435;SDS011;15351;52.408;16.826;2023-05-10T00:48:42;12.70;;;7.10;;
26435;SDS011;15351;52.408;16.826;2023-05-10T00:51:36;11.40;;;6.60;;
26435;SDS011;15351;52.408;16.826;2023-05-10T00:54:08;10.30;;;6.80;;
26435;SDS011;15351;52.408;16.826;2023-05-10T00:57:12;10.30;;;7.00;;
26435;SDS011;15351;52.408;16.826;2023-05-10T00:59:42;11.00;;;6.80;;
26435;SDS011;15351;52.408;16.826;2023-05-10T01:02:09;9.30;;;6.60;;
26435;SDS011;15351;52.408;16.826;2023-05-10T01:08:04;9.20;;;6.70;;
26435;SDS011;15351;52.408;16.826;2023-05-10T01:10:42;10.10;;;6.90;;
26435;SDS011;15351;52.408;16.826;2023-05-10T01:13:34;8.90;;;6.30;;
26435;SDS011;15351;52.408;16.826;2023-05-10T01:16:51;9.80;;;6.70;;
26435;SDS011;15351;52.408;16.826;2023-05-10T01:32:51;9.50;;;6.60;;
26435;SDS011;15351;52.408;16.826;2023-05-10T01:43:15;10.30;;;7.00;;
26435;SDS011;15351;52.408;16.826;2023-05-10T01:55:09;10.30;;;7.00;;
26435;SDS011;15351;52.408;16.826;2023-05-10T01:58:10;10.60;;;7.10;;
26435;SDS011;15351;52.408;16.826;2023-05-10T02:01:09;13.60;;;7.20;;
26435;SDS011;15351;52.408;16.826;2023-05-10T02:03:56;10.40;;;6.90;;
26435;SDS011;15351;52.408;16.826;2023-05-10T02:06:58;10.50;;;7.00;;
26435;SDS011;15351;52.408;16.826;2023-05-10T02:09:36;8.90;;;6.90;;
26435;SDS011;15351;52.408;16.826;2023-05-10T02:12:06;11.80;;;7.30;;
26435;SDS011;15351;52.408;16.826;2023-05-10T02:14:59;10.00;;;7.20;;
26435;SDS011;15351;52.408;16.826;2023-05-10T02:17:56;10.40;;;7.40;;
26435;SDS011;15351;52.408;16.826;2023-05-10T02:20:57;10.70;;;7.40;;
26435;SDS011;15351;52.408;16.826;2023-05-10T02:23:24;11.10;;;7.40;;
26435;SDS011;15351;52.408;16.826;2023-05-10T02:26:14;13.60;;;7.50;;
26435;SDS011;15351;52.408;16.826;2023-05-10T02:29:22;10.30;;;7.50;;
26435;SDS011;15351;52.408;16.826;2023-05-10T02:32:01;9.00;;;7.20;;
26435;SDS011;15351;52.408;16.826;2023-05-10T02:34:32;12.10;;;7.80;;
26435;SDS011;15351;52.408;16.826;2023-05-10T02:37:04;11.70;;;7.50;;
26435;SDS011;15351;52.408;16.826;2023-05-10T02:39:52;9.20;;;7.00;;
26435;SDS011;15351;52.408;16.826;2023-05-10T02:42:43;11.10;;;7.40;;
26435;SDS011;15351;52.408;16.826;2023-05-10T02:45:17;11.80;;;7.50;;
26435;SDS011;15351;52.408;16.826;2023-05-10T02:47:49;11.40;;;7.30;;
26435;SDS011;15351;52.408;16.826;2023-05-10T02:50:16;10.10;;;7.30;;
26435;SDS011;15351;52.408;16.826;2023-05-10T02:52:47;10.20;;;7.20;;
26435;SDS011;15351;52.408;16.826;2023-05-10T02:55:21;9.40;;;6.90;;
26435;SDS011;15351;52.408;16.826;2023-05-10T02:57:58;13.40;;;7.60;;
26435;SDS011;15351;52.408;16.826;2023-05-10T03:00:33;9.80;;;7.30;;
26435;SDS011;15351;52.408;16.826;2023-05-10T03:03:00;9.50;;;7.20;;
26435;SDS011;15351;52.408;16.826;2023-05-10T03:05:28;12.00;;;7.50;;
26435;SDS011;15351;52.408;16.826;2023-05-10T03:07:59;11.30;;;7.00;;
26435;SDS011;15351;52.408;16.826;2023-05-10T03:10:30;10.00;;;7.50;;
26435;SDS011;15351;52.408;16.826;2023-05-10T03:15:56;10.70;;;7.30;;
26435;SDS011;15351;52.408;16.826;2023-05-10T03:18:33;11.00;;;7.60;;
26435;SDS011;15351;52.408;16.826;2023-05-10T03:21:06;11.60;;;7.40;;
26435;SDS011;15351;52.408;16.826;2023-05-10T03:23:43;9.70;;;7.40;;
26435;SDS011;15351;52.408;16.826;2023-05-10T03:26:16;9.90;;;7.30;;
26435;SDS011;15351;52.408;16.826;2023-05-10T03:28:52;13.40;;;6.90;;
26435;SDS011;15351;52.408;16.826;2023-05-10T03:31:21;10.80;;;7.90;;
26435;SDS011;15351;52.408;16.826;2023-05-10T03:33:50;12.00;;;7.80;;
26435;SDS011;15351;52.408;16.826;2023-05-10T03:36:29;10.30;;;7.10;;
26435;SDS011;15351;52.408;16.826;2023-05-10T03:39:01;10.40;;;7.50;;
26435;SDS011;15351;52.408;16.826;2023-05-10T03:41:29;11.20;;;7.20;;
26435;SDS011;15351;52.408;16.826;2023-05-10T03:44:03;10.30;;;7.50;;
26435;SDS011;15351;52.408;16.826;2023-05-10T03:46:31;14.30;;;7.60;;
26435;SDS011;15351;52.408;16.826;2023-05-10T03:49:03;13.40;;;7.80;;
26435;SDS011;15351;52.408;16.826;2023-05-10T03:51:32;10.30;;;7.30;;
26435;SDS011;15351;52.408;16.826;2023-05-10T03:54:00;11.70;;;7.50;;
26435;SDS011;15351;52.408;16.826;2023-05-10T03:56:30;11.00;;;7.60;;
26435;SDS011;15351;52.408;16.826;2023-05-10T03:58:58;10.70;;;7.60;;
26435;SDS011;15351;52.408;16.826;2023-05-10T04:01:26;11.10;;;7.60;;
26435;SDS011;15351;52.408;16.826;2023-05-10T04:03:52;11.70;;;7.40;;
26435;SDS011;15351;52.408;16.826;2023-05-10T04:06:21;10.30;;;7.50;;
26435;SDS011;15351;52.408;16.826;2023-05-10T04:08:48;11.70;;;7.80;;
26435;SDS011;15351;52.408;16.826;2023-05-10T04:11:18;10.90;;;7.70;;
26435;SDS011;15351;52.408;16.826;2023-05-10T04:13:45;11.20;;;7.70;;
26435;SDS011;15351;52.408;16.826;2023-05-10T04:16:12;13.20;;;7.70;;
26435;SDS011;15351;52.408;16.826;2023-05-10T04:18:39;9.20;;;7.30;;
26435;SDS011;15351;52.408;16.826;2023-05-10T04:21:14;12.00;;;8.00;;
26435;SDS011;15351;52.408;16.826;2023-05-10T04:23:44;14.40;;;8.10;;
26435;SDS011;15351;52.408;16.826;2023-05-10T04:26:12;10.20;;;7.50;;
26435;SDS011;15351;52.408;16.826;2023-05-10T04:28:49;11.20;;;8.00;;
26435;SDS011;15351;52.408;16.826;2023-05-10T04:31:26;13.40;;;7.40;;
26435;SDS011;15351;52.408;16.826;2023-05-10T04:33:54;11.40;;;8.20;;
26435;SDS011;15351;52.408;16.826;2023-05-10T04:36:24;12.60;;;7.60;;
26435;SDS011;15351;52.408;16.826;2023-05-10T04:38:51;11.60;;;8.20;;
26435;SDS011;15351;52.408;16.826;2023-05-10T04:41:19;11.60;;;8.10;;
26435;SDS011;15351;52.408;16.826;2023-05-10T04:43:56;13.70;;;8.30;;
26435;SDS011;15351;52.408;16.826;2023-05-10T04:46:24;12.40;;;7.90;;
26435;SDS011;15351;52.408;16.826;2023-05-10T04:48:57;10.90;;;8.00;;
26435;SDS011;15351;52.408;16.826;2023-05-10T04:51:29;12.10;;;7.90;;
26435;SDS011;15351;52.408;16.826;2023-05-10T04:53:59;11.70;;;8.10;;
26435;SDS011;15351;52.408;16.826;2023-05-10T04:56:27;12.00;;;8.10;;
26435;SDS011;15351;52.408;16.826;2023-05-10T04:59:02;11.40;;;7.80;;
26435;SDS011;15351;52.408;16.826;2023-05-10T05:01:33;11.20;;;8.10;;
26435;SDS011;15351;52.408;16.826;2023-05-10T05:04:00;11.80;;;8.00;;
26435;SDS011;15351;52.408;16.826;2023-05-10T05:06:32;11.90;;;8.00;;
26435;SDS011;15351;52.408;16.826;2023-05-10T05:09:00;11.50;;;7.90;;
26435;SDS011;15351;52.408;16.826;2023-05-10T05:11:27;12.40;;;7.90;;
26435;SDS011;15351;52.408;16.826;2023-05-10T05:13:55;12.70;;;7.90;;
26435;SDS011;15351;52.408;16.826;2023-05-10T05:16:21;11.00;;;8.00;;
26435;SDS011;15351;52.408;16.826;2023-05-10T05:18:48;10.40;;;7.80;;
26435;SDS011;15351;52.408;16.826;2023-05-10T05:21:16;11.70;;;7.90;;
26435;SDS011;15351;52.408;16.826;2023-05-10T05:24:33;12.10;;;7.80;;
26435;SDS011;15351;52.408;16.826;2023-05-10T05:28:31;12.30;;;7.80;;
26435;SDS011;15351;52.408;16.826;2023-05-10T05:31:46;13.30;;;8.20;;
26435;SDS011;15351;52.408;16.826;2023-05-10T05:37:50;10.20;;;7.90;;
26435;SDS011;15351;52.408;16.826;2023-05-10T05:40:18;13.10;;;8.30;;
26435;SDS011;15351;52.408;16.826;2023-05-10T05:42:47;12.30;;;8.20;;
26435;SDS011;15351;52.408;16.826;2023-05-10T05:45:14;13.80;;;7.80;;
26435;SDS011;15351;52.408;16.826;2023-05-10T05:47:41;11.80;;;8.20;;
26435;SDS011;15351;52.408;16.826;2023-05-10T05:50:08;14.80;;;8.50;;
26435;SDS011;15351;52.408;16.826;2023-05-10T05:52:37;13.80;;;8.00;;
26435;SDS011;15351;52.408;16.826;2023-05-10T05:55:18;10.60;;;7.90;;
26435;SDS011;15351;52.408;16.826;2023-05-10T05:58:01;13.50;;;8.20;;
26435;SDS011;15351;52.408;16.826;2023-05-10T06:00:30;14.10;;;8.10;;
26435;SDS011;15351;52.408;16.826;2023-05-10T06:02:58;16.30;;;7.90;;
26435;SDS011;15351;52.408;16.826;2023-05-10T06:05:28;13.30;;;8.20;;
26435;SDS011;15351;52.408;16.826;2023-05-10T06:07:55;12.60;;;7.60;;
26435;SDS011;15351;52.408;16.826;2023-05-10T06:10:22;11.30;;;7.30;;
26435;SDS011;15351;52.408;16.826;2023-05-10T06:12:57;11.10;;;7.50;;
26435;SDS011;15351;52.408;16.826;2023-05-10T06:15:25;9.80;;;7.50;;
26435;SDS011;15351;52.408;16.826;2023-05-10T06:18:00;12.90;;;7.60;;
26435;SDS011;15351;52.408;16.826;2023-05-10T06:20:33;9.70;;;7.00;;
26435;SDS011;15351;52.408;16.826;2023-05-10T06:23:00;11.50;;;7.30;;
26435;SDS011;15351;52.408;16.826;2023-05-10T06:25:30;15.00;;;7.40;;
26435;SDS011;15351;52.408;16.826;2023-05-10T06:27:57;11.30;;;7.20;;
26435;SDS011;15351;52.408;16.826;2023-05-10T06:30:25;9.30;;;6.40;;
26435;SDS011;15351;52.408;16.826;2023-05-10T06:32:58;10.90;;;6.70;;
26435;SDS011;15351;52.408;16.826;2023-05-10T06:35:48;12.90;;;6.90;;
26435;SDS011;15351;52.408;16.826;2023-05-10T06:38:18;11.80;;;6.70;;
26435;SDS011;15351;52.408;16.826;2023-05-10T06:41:08;10.60;;;6.70;;
26435;SDS011;15351;52.408;16.826;2023-05-10T06:43:35;12.60;;;6.80;;
26435;SDS011;15351;52.408;16.826;2023-05-10T06:46:12;9.70;;;6.50;;
26435;SDS011;15351;52.408;16.826;2023-05-10T06:48:40;9.90;;;6.10;;
26435;SDS011;15351;52.408;16.826;2023-05-10T06:51:09;11.40;;;6.30;;
26435;SDS011;15351;52.408;16.826;2023-05-10T06:53:55;9.70;;;6.20;;
26435;SDS011;15351;52.408;16.826;2023-05-10T06:56:22;10.20;;;6.60;;
26435;SDS011;15351;52.408;16.826;2023-05-10T06:58:49;8.30;;;6.10;;
26435;SDS011;15351;52.408;16.826;2023-05-10T07:01:17;12.20;;;6.80;;
26435;SDS011;15351;52.408;16.826;2023-05-10T07:03:47;9.90;;;6.40;;
26435;SDS011;15351;52.408;16.826;2023-05-10T07:06:14;10.40;;;6.00;;
26435;SDS011;15351;52.408;16.826;2023-05-10T07:08:45;9.10;;;5.40;;
26435;SDS011;15351;52.408;16.826;2023-05-10T07:11:19;8.30;;;5.50;;
26435;SDS011;15351;52.408;16.826;2023-05-10T07:13:58;8.10;;;5.40;;
26435;SDS011;15351;52.408;16.826;2023-05-10T07:16:28;7.80;;;5.40;;
26435;SDS011;15351;52.408;16.826;2023-05-10T07:18:55;8.60;;;5.50;;
26435;SDS011;15351;52.408;16.826;2023-05-10T07:24:05;8.00;;;5.10;;
26435;SDS011;15351;52.408;16.826;2023-05-10T07:26:32;9.80;;;5.20;;
26435;SDS011;15351;52.408;16.826;2023-05-10T07:29:09;8.60;;;5.00;;
26435;SDS011;15351;52.408;16.826;2023-05-10T07:31:43;8.30;;;5.20;;
26435;SDS011;15351;52.408;16.826;2023-05-10T07:34:21;8.20;;;5.20;;
26435;SDS011;15351;52.408;16.826;2023-05-10T07:37:02;9.10;;;5.20;;
26435;SDS011;15351;52.408;16.826;2023-05-10T07:39:37;8.70;;;5.20;;
26435;SDS011;15351;52.408;16.826;2023-05-10T07:42:25;9.40;;;5.00;;
26435;SDS011;15351;52.408;16.826;2023-05-10T07:44:52;8.20;;;5.00;;
26435;SDS011;15351;52.408;16.826;2023-05-10T07:47:22;7.10;;;4.90;;
26435;SDS011;15351;52.408;16.826;2023-05-10T07:50:06;6.30;;;4.60;;
26435;SDS011;15351;52.408;16.826;2023-05-10T07:55:25;6.40;;;4.40;;
26435;SDS011;15351;52.408;16.826;2023-05-10T07:57:53;7.10;;;4.60;;
26435;SDS011;15351;52.408;16.826;2023-05-10T08:00:22;7.50;;;4.40;;
26435;SDS011;15351;52.408;16.826;2023-05-10T08:02:52;7.80;;;4.80;;
26435;SDS011;15351;52.408;16.826;2023-05-10T08:05:38;6.50;;;4.40;;
26435;SDS011;15351;52.408;16.826;2023-05-10T08:08:30;7.90;;;4.80;;
26435;SDS011;15351;52.408;16.826;2023-05-10T08:11:19;8.30;;;4.70;;
26435;SDS011;15351;52.408;16.826;2023-05-10T08:13:58;7.80;;;4.60;;
26435;SDS011;15351;52.408;16.826;2023-05-10T08:16:27;7.90;;;4.40;;
26435;SDS011;15351;52.408;16.826;2023-05-10T08:25:07;6.60;;;3.30;;
26435;SDS011;15351;52.408;16.826;2023-05-10T08:30:58;5.50;;;3.30;;
26435;SDS011;15351;52.408;16.826;2023-05-10T08:33:45;6.10;;;3.50;;
26435;SDS011;15351;52.408;16.826;2023-05-10T08:39:23;5.90;;;3.60;;
26435;SDS011;15351;52.408;16.826;2023-05-10T08:42:21;4.70;;;3.60;;
26435;SDS011;15351;52.408;16.826;2023-05-10T08:45:33;6.10;;;3.70;;
26435;SDS011;15351;52.408;16.826;2023-05-10T08:48:27;5.50;;;3.50;;
26435;SDS011;15351;52.408;16.826;2023-05-10T08:51:32;6.50;;;3.50;;
26435;SDS011;15351;52.408;16.826;2023-05-10T08:54:24;6.70;;;3.30;;
26435;SDS011;15351;52.408;16.826;2023-05-10T08:56:56;5.60;;;3.20;;
26435;SDS011;15351;52.408;16.826;2023-05-10T08:59:36;7.20;;;3.10;;
26435;SDS011;15351;52.408;16.826;2023-05-10T09:06:07;4.60;;;2.90;;
26435;SDS011;15351;52.408;16.826;2023-05-10T09:08:36;5.40;;;3.00;;
26435;SDS011;15351;52.408;16.826;2023-05-10T09:14:33;6.60;;;3.00;;
26435;SDS011;15351;52.408;16.826;2023-05-10T09:17:07;4.70;;;3.00;;
26435;SDS011;15351;52.408;16.826;2023-05-10T09:19:37;7.20;;;3.00;;
26435;SDS011;15351;52.408;16.826;2023-05-10T09:22:28;4.80;;;2.60;;
26435;SDS011;15351;52.408;16.826;2023-05-10T09:25:23;5.00;;;2.70;;
26435;SDS011;15351;52.408;16.826;2023-05-10T09:32:45;4.80;;;2.40;;
26435;SDS011;15351;52.408;16.826;2023-05-10T09:51:01;3.70;;;2.00;;
26435;SDS011;15351;52.408;16.826;2023-05-10T09:54:11;4.10;;;2.10;;
26435;SDS011;15351;52.408;16.826;2023-05-10T10:08:22;5.60;;;2.30;;
26435;SDS011;15351;52.408;16.826;2023-05-10T10:18:13;4.00;;;2.10;;
26435;SDS011;15351;52.408;16.826;2023-05-10T10:24:52;4.10;;;2.40;;
26435;SDS011;15351;52.408;16.826;2023-05-10T10:35:16;5.50;;;2.40;;
26435;SDS011;15351;52.408;16.826;2023-05-10T10:55:32;3.40;;;2.00;;
26435;SDS011;15351;52.408;16.826;2023-05-10T12:04:04;3.40;;;2.30;;
26435;SDS011;15351;52.408;16.826;2023-05-10T12:06:34;3.20;;;2.30;;
26435;SDS011;15351;52.408;16.826;2023-05-10T12:09:16;3.60;;;2.20;;
26435;SDS011;15351;52.408;16.826;2023-05-10T12:11:44;3.40;;;2.20;;
26435;SDS011;15351;52.408;16.826;2023-05-10T12:14:23;4.50;;;2.50;;
26435;SDS011;15351;52.408;16.826;2023-05-10T12:17:05;5.90;;;2.50;;
26435;SDS011;15351;52.408;16.826;2023-05-10T12:23:26;3.70;;;2.50;;
26435;SDS011;15351;52.408;16.826;2023-05-10T12:26:09;4.80;;;2.50;;
26435;SDS011;15351;52.408;16.826;2023-05-10T12:32:10;6.30;;;2.60;;
26435;SDS011;15351;52.408;16.826;2023-05-10T12:35:43;5.70;;;2.30;;
26435;SDS011;15351;52.408;16.826;2023-05-10T12:39:41;3.20;;;2.50;;
26435;SDS011;15351;52.408;16.826;2023-05-10T12:43:06;4.90;;;2.70;;
26435;SDS011;15351;52.408;16.826;2023-05-10T12:53:53;3.10;;;2.50;;
26435;SDS011;15351;52.408;16.826;2023-05-10T12:57:30;3.30;;;2.30;;
26435;SDS011;15351;52.408;16.826;2023-05-10T13:00:46;3.90;;;2.60;;
26435;SDS011;15351;52.408;16.826;2023-05-10T13:04:19;5.90;;;2.70;;
26435;SDS011;15351;52.408;16.826;2023-05-10T13:11:09;4.80;;;2.50;;
26435;SDS011;15351;52.408;16.826;2023-05-10T13:14:42;4.10;;;2.70;;
26435;SDS011;15351;52.408;16.826;2023-05-10T13:21:24;3.80;;;2.60;;
26435;SDS011;15351;52.408;16.826;2023-05-10T14:43:01;4.10;;;3.00;;
26435;SDS011;15351;52.408;16.826;2023-05-10T14:46:42;5.20;;;3.20;;
26435;SDS011;15351;52.408;16.826;2023-05-10T14:50:03;5.80;;;3.00;;
26435;SDS011;15351;52.408;16.826;2023-05-10T15:07:04;6.70;;;3.20;;
26435;SDS011;15351;52.408;16.826;2023-05-10T15:09:37;6.40;;;3.20;;
26435;SDS011;15351;52.408;16.826;2023-05-10T15:12:58;5.60;;;3.40;;
26435;SDS011;15351;52.408;16.826;2023-05-10T15:19:11;4.40;;;3.30;;
26435;SDS011;15351;52.408;16.826;2023-05-10T15:25:49;5.60;;;3.40;;
26435;SDS011;15351;52.408;16.826;2023-05-10T15:29:42;4.40;;;3.30;;
26435;SDS011;15351;52.408;16.826;2023-05-10T15:37:25;3.80;;;3.00;;
26435;SDS011;15351;52.408;16.826;2023-05-10T15:45:09;4.50;;;3.20;;
26435;SDS011;15351;52.408;16.826;2023-05-10T15:47:38;4.40;;;3.10;;
26435;SDS011;15351;52.408;16.826;2023-05-10T15:50:21;5.30;;;2.90;;
26435;SDS011;15351;52.408;16.826;2023-05-10T15:57:07;4.20;;;3.30;;
26435;SDS011;15351;52.408;16.826;2023-05-10T16:03:55;4.40;;;3.60;;
26435;SDS011;15351;52.408;16.826;2023-05-10T16:06:52;6.40;;;3.30;;
26435;SDS011;15351;52.408;16.826;2023-05-10T16:10:38;7.60;;;3.20;;
26435;SDS011;15351;52.408;16.826;2023-05-10T16:13:27;7.30;;;3.20;;
26435;SDS011;15351;52.408;16.826;2023-05-10T16:24:51;4.50;;;3.50;;
26435;SDS011;15351;52.408;16.826;2023-05-10T16:34:51;4.80;;;3.30;;
26435;SDS011;15351;52.408;16.826;2023-05-10T16:43:00;6.90;;;3.30;;
26435;SDS011;15351;52.408;16.826;2023-05-10T16:46:15;5.60;;;3.30;;
26435;SDS011;15351;52.408;16.826;2023-05-10T16:48:55;6.60;;;3.40;;
26435;SDS011;15351;52.408;16.826;2023-05-10T16:55:31;4.70;;;3.30;;
26435;SDS011;15351;52.408;16.826;2023-05-10T17:01:54;7.30;;;3.30;;
26435;SDS011;15351;52.408;16.826;2023-05-10T17:07:31;5.70;;;3.70;;
26435;SDS011;15351;52.408;16.826;2023-05-10T17:10:07;5.30;;;3.30;;
26435;SDS011;15351;52.408;16.826;2023-05-10T17:20:14;3.90;;;3.20;;
26435;SDS011;15351;52.408;16.826;2023-05-10T17:23:07;6.50;;;3.50;;
26435;SDS011;15351;52.408;16.826;2023-05-10T17:29:22;4.70;;;3.20;;
26435;SDS011;15351;52.408;16.826;2023-05-10T17:35:29;6.10;;;3.40;;
26435;SDS011;15351;52.408;16.826;2023-05-10T17:42:40;9.90;;;3.40;;
26435;SDS011;15351;52.408;16.826;2023-05-10T17:45:33;7.00;;;3.60;;
26435;SDS011;15351;52.408;16.826;2023-05-10T17:54:27;4.90;;;3.40;;
26435;SDS011;15351;52.408;16.826;2023-05-10T17:59:47;5.60;;;3.40;;
26435;SDS011;15351;52.408;16.826;2023-05-10T18:02:41;5.60;;;3.50;;
26435;SDS011;15351;52.408;16.826;2023-05-10T18:05:33;4.40;;;3.20;;
26435;SDS011;15351;52.408;16.826;2023-05-10T18:15:43;7.40;;;3.90;;
26435;SDS011;15351;52.408;16.826;2023-05-10T18:25:20;7.50;;;4.30;;
26435;SDS011;15351;52.408;16.826;2023-05-10T18:27:48;8.60;;;4.30;;
26435;SDS011;15351;52.408;16.826;2023-05-10T18:30:20;8.30;;;4.50;;
26435;SDS011;15351;52.408;16.826;2023-05-10T18:32:47;9.70;;;4.30;;
26435;SDS011;15351;52.408;16.826;2023-05-10T18:35:32;7.20;;;4.40;;
26435;SDS011;15351;52.408;16.826;2023-05-10T18:38:23;6.90;;;4.10;;
26435;SDS011;15351;52.408;16.826;2023-05-10T18:45:07;8.00;;;4.20;;
26435;SDS011;15351;52.408;16.826;2023-05-10T18:53:09;7.30;;;4.20;;
26435;SDS011;15351;52.408;16.826;2023-05-10T18:56:13;7.90;;;4.20;;
26435;SDS011;15351;52.408;16.826;2023-05-10T18:58:45;8.50;;;4.20;;
26435;SDS011;15351;52.408;16.826;2023-05-10T19:08:36;7.20;;;4.10;;
26435;SDS011;15351;52.408;16.826;2023-05-10T19:16:49;6.60;;;4.50;;
26435;SDS011;15351;52.408;16.826;2023-05-10T19:20:37;7.10;;;4.30;;
26435;SDS011;15351;52.408;16.826;2023-05-10T19:24:02;7.50;;;4.20;;
26435;SDS011;15351;52.408;16.826;2023-05-10T19:27:14;6.80;;;4.30;;
26435;SDS011;15351;52.408;16.826;2023-05-10T19:29:54;6.90;;;4.20;;
26435;SDS011;15351;52.408;16.826;2023-05-10T19:32:35;8.00;;;4.40;;
26435;SDS011;15351;52.408;16.826;2023-05-10T19:35:11;9.40;;;4.70;;
26435;SDS011;15351;52.408;16.826;2023-05-10T19:37:44;6.50;;;4.60;;
26435;SDS011;15351;52.408;16.826;2023-05-10T19:40:46;7.90;;;4.60;;
26435;SDS011;15351;52.408;16.826;2023-05-10T19:46:47;9.70;;;5.00;;
26435;SDS011;15351;52.408;16.826;2023-05-10T20:00:43;13.10;;;7.20;;
26435;SDS011;15351;52.408;16.826;2023-05-10T20:03:42;10.40;;;6.20;;
26435;SDS011;15351;52.408;16.826;2023-05-10T20:06:29;10.50;;;6.00;;
26435;SDS011;15351;52.408;16.826;2023-05-10T20:10:24;9.00;;;5.30;;
26435;SDS011;15351;52.408;16.826;2023-05-10T20:18:24;7.00;;;4.70;;
26435;SDS011;15351;52.408;16.826;2023-05-10T20:24:45;8.30;;;5.00;;
26435;SDS011;15351;52.408;16.826;2023-05-10T20:30:03;5.90;;;4.50;;
26435;SDS011;15351;52.408;16.826;2023-05-10T20:35:54;7.50;;;4.80;;
26435;SDS011;15351;52.408;16.826;2023-05-10T20:38:45;7.80;;;4.80;;
26435;SDS011;15351;52.408;16.826;2023-05-10T20:41:17;7.10;;;4.70;;
26435;SDS011;15351;52.408;16.826;2023-05-10T20:44:35;8.30;;;4.90;;
26435;SDS011;15351;52.408;16.826;2023-05-10T20:47:40;7.90;;;4.80;;
26435;SDS011;15351;52.408;16.826;2023-05-10T20:50:16;7.80;;;4.90;;
26435;SDS011;15351;52.408;16.826;2023-05-10T20:55:51;6.90;;;5.00;;
26435;SDS011;15351;52.408;16.826;2023-05-10T20:58:18;6.30;;;4.90;;
26435;SDS011;15351;52.408;16.826;2023-05-10T21:00:44;7.50;;;4.40;;
26435;SDS011;15351;52.408;16.826;2023-05-10T21:03:13;7.60;;;4.80;;
26435;SDS011;15351;52.408;16.826;2023-05-10T21:05:45;8.10;;;4.90;;
26435;SDS011;15351;52.408;16.826;2023-05-10T21:11:20;7.70;;;4.90;;
26435;SDS011;15351;52.408;16.826;2023-05-10T21:13:50;8.70;;;5.00;;
26435;SDS011;15351;52.408;16.826;2023-05-10T21:16:27;9.50;;;5.00;;
26435;SDS011;15351;52.408;16.826;2023-05-10T21:18:57;9.80;;;4.90;;
26435;SDS011;15351;52.408;16.826;2023-05-10T21:21:27;9.10;;;5.00;;
26435;SDS011;15351;52.408;16.826;2023-05-10T21:24:05;7.10;;;5.20;;
26435;SDS011;15351;52.408;16.826;2023-05-10T21:26:42;7.20;;;5.00;;
26435;SDS011;15351;52.408;16.826;2023-05-10T21:29:36;8.00;;;5.50;;
26435;SDS011;15351;52.408;16.826;2023-05-10T21:38:53;8.90;;;5.60;;
26435;SDS011;15351;52.408;16.826;2023-05-10T21:41:22;8.40;;;5.00;;
26435;SDS011;15351;52.408;16.826;2023-05-10T21:47:28;11.40;;;5.60;;
26435;SDS011;15351;52.408;16.826;2023-05-10T21:49:56;8.40;;;5.70;;
26435;SDS011;15351;52.408;16.826;2023-05-10T21:53:13;9.10;;;5.80;;
26435;SDS011;15351;52.408;16.826;2023-05-10T21:56:35;7.80;;;5.60;;
26435;SDS011;15351;52.408;16.826;2023-05-10T21:59:02;9.00;;;5.40;;
26435;SDS011;15351;52.408;16.826;2023-05-10T22:01:41;8.60;;;5.80;;
26435;SDS011;15351;52.408;16.826;2023-05-10T22:04:08;9.30;;;5.50;;
26435;SDS011;15351;52.408;16.826;2023-05-10T22:06:52;10.20;;;5.90;;
26435;SDS011;15351;52.408;16.826;2023-05-10T22:10:20;8.10;;;5.30;;
26435;SDS011;15351;52.408;16.826;2023-05-10T22:12:52;8.30;;;5.60;;
26435;SDS011;15351;52.408;16.826;2023-05-10T22:15:36;10.90;;;6.00;;
26435;SDS011;15351;52.408;16.826;2023-05-10T22:18:22;8.20;;;6.00;;
26435;SDS011;15351;52.408;16.826;2023-05-10T22:21:19;9.10;;;6.00;;
26435;SDS011;15351;52.408;16.826;2023-05-10T22:23:46;8.10;;;5.80;;
26435;SDS011;15351;52.408;16.826;2023-05-10T22:26:16;10.20;;;6.00;;
26435;SDS011;15351;52.408;16.826;2023-05-10T22:29:25;8.30;;;5.90;;
26435;SDS011;15351;52.408;16.826;2023-05-10T22:34:57;8.90;;;6.10;;
26435;SDS011;15351;52.408;16.826;2023-05-10T22:37:24;9.50;;;6.20;;
26435;SDS011;15351;52.408;16.826;2023-05-10T22:40:01;9.40;;;6.00;;
26435;SDS011;15351;52.408;16.826;2023-05-10T22:42:49;9.80;;;6.40;;
26435;SDS011;15351;52.408;16.826;2023-05-10T22:46:00;8.70;;;6.30;;
26435;SDS011;15351;52.408;16.826;2023-05-10T22:48:30;9.70;;;6.70;;
26435;SDS011;15351;52.408;16.826;2023-05-10T22:51:00;10.10;;;6.70;;
26435;SDS011;15351;52.408;16.826;2023-05-10T22:54:01;9.50;;;6.60;;
26435;SDS011;15351;52.408;16.826;2023-05-10T22:56:59;10.80;;;6.60;;
26435;SDS011;15351;52.408;16.826;2023-05-10T23:03:30;9.20;;;6.40;;
26435;SDS011;15351;52.408;16.826;2023-05-10T23:09:01;10.40;;;6.90;;
26435;SDS011;15351;52.408;16.826;2023-05-10T23:11:29;10.50;;;6.70;;
26435;SDS011;15351;52.408;16.826;2023-05-10T23:17:05;9.90;;;6.70;;
26435;SDS011;15351;52.408;16.826;2023-05-10T23:20:16;9.10;;;6.50;;
26435;SDS011;15351;52.408;16.826;2023-05-10T23:23:04;8.80;;;6.10;;
26435;SDS011;15351;52.408;16.826;2023-05-10T23:25:35;9.50;;;6.20;;
26435;SDS011;15351;52.408;16.826;2023-05-10T23:28:07;11.00;;;6.50;;
26435;SDS011;15351;52.408;16.826;2023-05-10T23:31:22;9.00;;;6.30;;
26435;SDS011;15351;52.408;16.826;2023-05-10T23:34:27;10.30;;;6.40;;
26435;SDS011;15351;52.408;16.826;2023-05-10T23:36:59;9.60;;;6.50;;
26435;SDS011;15351;52.408;16.826;2023-05-10T23:39:25;7.40;;;6.30;;
26435;SDS011;15351;52.408;16.826;2023-05-10T23:42:02;8.80;;;6.30;;
26435;SDS011;15351;52.408;16.826;2023-05-10T23:44:49;9.40;;;6.00;;
26435;SDS011;15351;52.408;16.826;2023-05-10T23:47:46;9.90;;;6.20;;
26435;SDS011;15351;52.408;16.826;2023-05-10T23:50:14;9.30;;;6.00;;
26435;SDS011;15351;52.408;16.826;2023-05-10T23:59:42;11.70;;;6.70;;
